createdAt,value
2022-09-13T00:01:04.201Z,93997.28
2022-09-13T00:03:31.078Z,94011.88
2022-09-13T00:05:58.103Z,94008.44
2022-09-13T00:08:24.781Z,94008.75
2022-09-13T00:10:51.437Z,94004.84
2022-09-13T00:13:18.416Z,94015.00
2022-09-13T00:15:50.388Z,94020.38
2022-09-13T00:18:18.495Z,93997.19
2022-09-13T00:20:45.839Z,94005.72
2022-09-13T00:23:13.474Z,94001.78
2022-09-13T00:25:40.446Z,93991.03
2022-09-13T00:28:07.686Z,93984.69
2022-09-13T00:30:34.754Z,93986.94
2022-09-13T00:33:04.765Z,93988.84
2022-09-13T00:35:32.184Z,93981.22
2022-09-13T00:38:02.120Z,93972.28
2022-09-13T00:40:30.536Z,93962.22
2022-09-13T00:42:57.404Z,93963.78
2022-09-13T00:45:24.210Z,93949.13
2022-09-13T00:47:59.345Z,93961.69
2022-09-13T00:50:34.870Z,93960.91
2022-09-13T00:53:39.001Z,93953.44
2022-09-13T00:56:13.666Z,93959.09
2022-09-13T00:58:45.502Z,93951.38
2022-09-13T01:01:14.593Z,93952.50
2022-09-13T01:03:43.474Z,93945.91
2022-09-13T01:06:18.166Z,93954.25
2022-09-13T01:08:49.109Z,93965.97
2022-09-13T01:11:25.318Z,93961.28
2022-09-13T01:13:52.181Z,93953.63
2022-09-13T01:16:18.851Z,93953.13
2022-09-13T01:18:45.523Z,93960.78
2022-09-13T01:21:31.627Z,93970.16
2022-09-13T01:24:04.495Z,93972.13
2022-09-13T01:26:49.897Z,93970.16
2022-09-13T01:29:36.231Z,93964.34
2022-09-13T01:32:53.954Z,93961.47
2022-09-13T01:35:35.706Z,93969.09
2022-09-13T01:38:23.940Z,93959.13
2022-09-13T01:40:53.520Z,93957.56
2022-09-13T01:43:50.682Z,93952.06
2022-09-13T01:46:54.856Z,93942.78
2022-09-13T01:49:21.816Z,93942.78
2022-09-13T01:52:01.691Z,93938.28
2022-09-13T01:54:49.077Z,93940.72
2022-09-13T01:57:40.427Z,93948.44
2022-09-13T02:00:12.383Z,93939.16
2022-09-13T02:02:41.926Z,93935.69
2022-09-13T02:05:47.942Z,93934.69
2022-09-13T02:08:40.523Z,93945.56
2022-09-13T02:11:13.312Z,93943.06
2022-09-13T02:13:46.536Z,93941.50
2022-09-13T02:16:19.631Z,93946.09
2022-09-13T02:18:54.998Z,93937.75
2022-09-13T02:21:28.034Z,93940.69
2022-09-13T02:24:06.619Z,93947.00
2022-09-13T02:26:36.823Z,93943.09
2022-09-13T02:29:10.317Z,93940.66
2022-09-13T02:31:47.719Z,93934.00
2022-09-13T02:34:47.088Z,93935.22
2022-09-13T02:37:14.998Z,93934.69
2022-09-13T02:39:47.799Z,93934.34
2022-09-13T02:42:19.229Z,93947.88
2022-09-13T02:44:49.904Z,93936.69
2022-09-13T02:47:44.686Z,93937.13
2022-09-13T02:50:28.424Z,93932.00
2022-09-13T02:53:36.473Z,93944.81
2022-09-13T02:56:22.065Z,93940.22
2022-09-13T02:59:30.295Z,93937.63
2022-09-13T03:02:03.808Z,93935.22
2022-09-13T03:04:30.545Z,93920.81
2022-09-13T03:06:57.187Z,93915.69
2022-09-13T03:09:24.154Z,93929.06
2022-09-13T03:11:50.776Z,93929.13
2022-09-13T03:14:35.902Z,93933.66
2022-09-13T03:17:44.126Z,93938.94
2022-09-13T03:20:19.243Z,93939.53
2022-09-13T03:23:13.775Z,93941.00
2022-09-13T03:25:49.179Z,93936.75
2022-09-13T03:28:31.847Z,93929.72
2022-09-13T03:31:10.982Z,93927.38
2022-09-13T03:33:59.381Z,93931.22
2022-09-13T03:36:51.644Z,93929.78
2022-09-13T03:39:27.253Z,93930.03
2022-09-13T03:42:00.030Z,93916.50
2022-09-13T03:44:29.575Z,93918.00
2022-09-13T03:46:59.069Z,93921.97
2022-09-13T03:49:27.483Z,93917.47
2022-09-13T03:51:54.897Z,93918.16
2022-09-13T03:54:32.564Z,93921.03
2022-09-13T03:57:11.444Z,93922.28
2022-09-13T03:59:41.821Z,93920.63
2022-09-13T04:02:11.218Z,93911.19
2022-09-13T04:04:42.744Z,93905.28
2022-09-13T04:07:11.526Z,93905.91
2022-09-13T04:09:38.222Z,93909.28
2022-09-13T04:12:05.194Z,93916.38
2022-09-13T04:14:31.895Z,93911.63
2022-09-13T04:16:58.867Z,93910.53
2022-09-13T04:19:26.188Z,93915.03
2022-09-13T04:21:54.785Z,93920.69
2022-09-13T04:24:25.414Z,93915.97
2022-09-13T04:26:53.678Z,93886.50
2022-09-13T04:29:21.780Z,93895.97
2022-09-13T04:31:50.027Z,93901.00
2022-09-13T04:34:18.587Z,93912.19
2022-09-13T04:36:46.196Z,93920.31
2022-09-13T04:39:16.129Z,93927.34
2022-09-13T04:41:46.025Z,93929.59
2022-09-13T04:44:14.214Z,93936.25
2022-09-13T04:46:41.633Z,93924.91
2022-09-13T04:49:10.715Z,93930.75
2022-09-13T04:51:37.459Z,93904.53
2022-09-13T04:54:04.481Z,93918.00
2022-09-13T04:56:31.125Z,93917.88
2022-09-13T04:58:57.771Z,93925.69
2022-09-13T05:01:27.951Z,93915.97
2022-09-13T05:03:55.543Z,93925.16
2022-09-13T05:06:22.972Z,93918.22
2022-09-13T05:08:53.008Z,93912.06
2022-09-13T05:11:19.616Z,93904.56
2022-09-13T05:13:53.120Z,93916.69
2022-09-13T05:16:20.317Z,93916.91
2022-09-13T05:18:47.224Z,93915.72
2022-09-13T05:21:14.448Z,93919.25
2022-09-13T05:23:41.187Z,93917.84
2022-09-13T05:26:08.621Z,93915.25
2022-09-13T05:28:36.787Z,93926.97
2022-09-13T05:31:06.341Z,93927.31
2022-09-13T05:33:38.497Z,93929.94
2022-09-13T05:36:06.063Z,93919.78
2022-09-13T05:38:33.533Z,93933.34
2022-09-13T05:41:02.661Z,93934.63
2022-09-13T05:43:32.279Z,93935.19
2022-09-13T05:46:07.198Z,93948.97
2022-09-13T05:48:35.455Z,93949.38
2022-09-13T05:51:22.629Z,93952.13
2022-09-13T05:53:51.763Z,93953.34
2022-09-13T05:56:21.202Z,93948.53
2022-09-13T05:58:49.507Z,93954.13
2022-09-13T06:01:19.676Z,93960.31
2022-09-13T06:03:50.734Z,93964.31
2022-09-13T06:06:17.626Z,93971.56
2022-09-13T06:08:44.805Z,93971.72
2022-09-13T06:11:13.366Z,93979.88
2022-09-13T06:13:40.768Z,93956.50
2022-09-13T06:16:09.894Z,93966.28
2022-09-13T06:18:37.116Z,93964.19
2022-09-13T06:21:05.926Z,93960.41
2022-09-13T06:23:32.589Z,93951.66
2022-09-13T06:26:07.752Z,93958.38
2022-09-13T06:28:37.429Z,93956.56
2022-09-13T06:31:12.865Z,93960.28
2022-09-13T06:33:42.048Z,93958.34
2022-09-13T06:36:20.392Z,93956.44
2022-09-13T06:38:49.040Z,93950.28
2022-09-13T06:41:21.910Z,93946.44
2022-09-13T06:43:54.420Z,93947.72
2022-09-13T06:46:24.915Z,93948.56
2022-09-13T06:48:55.635Z,93947.81
2022-09-13T06:51:24.651Z,93947.13
2022-09-13T06:53:53.360Z,93959.84
2022-09-13T06:56:22.641Z,93960.47
2022-09-13T06:58:51.957Z,93963.31
2022-09-13T07:01:21.332Z,93958.78
2022-09-13T07:04:09.350Z,93957.41
2022-09-13T07:06:41.414Z,93961.25
2022-09-13T07:09:10.794Z,93952.91
2022-09-13T07:11:39.112Z,93959.44
2022-09-13T07:14:06.940Z,93968.97
2022-09-13T07:16:36.306Z,93967.56
2022-09-13T07:19:07.958Z,93966.22
2022-09-13T07:21:35.639Z,93949.34
2022-09-13T07:24:02.497Z,93945.91
2022-09-13T07:26:29.124Z,93946.75
2022-09-13T07:28:59.368Z,93937.56
2022-09-13T07:31:29.225Z,93944.94
2022-09-13T07:34:04.450Z,93937.63
2022-09-13T07:36:33.631Z,93934.50
2022-09-13T07:39:01.617Z,93945.34
2022-09-13T07:41:30.378Z,93952.31
2022-09-13T07:43:59.338Z,93941.38
2022-09-13T07:46:28.546Z,93942.06
2022-09-13T07:48:57.021Z,93938.47
2022-09-13T07:51:32.618Z,93943.06
2022-09-13T07:54:03.062Z,93944.72
2022-09-13T07:56:32.281Z,93956.47
2022-09-13T07:59:01.022Z,93947.25
2022-09-13T08:01:34.736Z,93955.81
2022-09-13T08:04:04.862Z,93953.47
2022-09-13T08:06:32.905Z,93946.88
2022-09-13T08:09:00.007Z,93951.50
2022-09-13T08:11:37.060Z,93947.88
2022-09-13T08:14:05.539Z,93956.69
2022-09-13T08:16:32.533Z,93940.16
2022-09-13T08:19:02.088Z,93944.63
2022-09-13T08:21:36.387Z,93948.50
2022-09-13T08:24:04.270Z,93941.69
2022-09-13T08:26:33.096Z,93940.31
2022-09-13T08:29:02.300Z,93936.53
2022-09-13T08:31:29.722Z,93935.41
2022-09-13T08:33:57.833Z,93944.34
2022-09-13T08:36:26.344Z,93946.88
2022-09-13T08:38:55.917Z,93949.25
2022-09-13T08:41:45.382Z,93949.63
2022-09-13T08:44:18.170Z,93947.38
2022-09-13T08:46:46.841Z,93950.25
2022-09-13T08:49:40.818Z,93939.41
2022-09-13T08:52:33.231Z,93933.66
2022-09-13T08:55:03.974Z,93935.03
2022-09-13T08:58:00.502Z,93927.22
2022-09-13T09:00:38.230Z,93935.56
2022-09-13T09:03:18.635Z,93932.81
2022-09-13T09:05:50.889Z,93943.41
2022-09-13T09:08:34.583Z,93949.38
2022-09-13T09:11:27.619Z,93937.53
2022-09-13T09:14:14.308Z,93946.91
2022-09-13T09:16:55.730Z,93942.59
2022-09-13T09:19:28.597Z,93940.84
2022-09-13T09:21:55.353Z,93933.88
2022-09-13T09:24:25.561Z,93923.47
2022-09-13T09:27:00.043Z,93923.47
2022-09-13T09:29:33.495Z,93924.66
2022-09-13T09:32:20.161Z,93922.78
2022-09-13T09:34:56.122Z,93923.31
2022-09-13T09:37:28.810Z,93929.50
2022-09-13T09:40:03.143Z,93938.13
2022-09-13T09:42:33.670Z,93926.22
2022-09-13T09:45:24.448Z,93917.47
2022-09-13T09:47:53.261Z,93910.31
2022-09-13T09:50:23.305Z,93910.25
2022-09-13T09:52:59.242Z,93908.84
2022-09-13T09:55:50.442Z,93913.91
2022-09-13T09:58:18.966Z,93900.50
2022-09-13T10:00:59.158Z,93906.06
2022-09-13T10:03:31.846Z,93899.16
2022-09-13T10:06:22.113Z,93911.59
2022-09-13T10:09:02.594Z,93904.16
2022-09-13T10:12:02.413Z,93907.59
2022-09-13T10:14:37.522Z,93916.25
2022-09-13T10:17:24.025Z,93901.53
2022-09-13T10:20:02.185Z,93910.16
2022-09-13T10:22:31.286Z,93897.47
2022-09-13T10:25:14.700Z,93910.59
2022-09-13T10:27:51.795Z,93916.59
2022-09-13T10:30:39.801Z,93918.22
2022-09-13T10:33:14.314Z,93908.63
2022-09-13T10:35:41.288Z,93910.22
2022-09-13T10:38:24.534Z,93918.56
2022-09-13T10:40:51.332Z,93914.28
2022-09-13T10:43:21.950Z,93906.91
2022-09-13T10:45:52.241Z,93885.84
2022-09-13T10:48:20.313Z,93909.38
2022-09-13T10:51:08.751Z,93925.34
2022-09-13T10:53:45.382Z,93922.59
2022-09-13T10:56:21.482Z,93914.34
2022-09-13T10:58:48.142Z,93913.25
2022-09-13T11:01:40.648Z,93915.69
2022-09-13T11:04:10.522Z,93916.28
2022-09-13T11:06:59.656Z,93921.78
2022-09-13T11:09:42.998Z,93916.53
2022-09-13T11:12:46.765Z,93916.63
2022-09-13T11:15:31.258Z,93911.31
2022-09-13T11:18:30.082Z,93917.78
2022-09-13T11:21:26.860Z,93912.59
2022-09-13T11:24:14.434Z,93906.75
2022-09-13T11:27:02.293Z,93915.59
2022-09-13T11:29:47.456Z,93910.72
2022-09-13T11:32:23.214Z,93912.75
2022-09-13T11:35:27.542Z,93920.38
2022-09-13T11:37:54.594Z,93907.53
2022-09-13T11:40:36.547Z,93904.53
2022-09-13T11:43:41.193Z,93907.63
2022-09-13T11:46:25.280Z,93908.88
2022-09-13T11:49:36.604Z,93900.88
2022-09-13T11:52:14.494Z,93903.34
2022-09-13T11:54:50.739Z,93912.25
2022-09-13T11:57:25.154Z,93906.50
2022-09-13T11:59:58.902Z,93905.50
2022-09-13T12:02:47.339Z,93899.38
2022-09-13T12:05:22.539Z,93884.34
2022-09-13T12:07:55.179Z,93887.00
2022-09-13T12:10:30.065Z,93894.34
2022-09-13T12:13:07.242Z,93899.72
2022-09-13T12:15:40.785Z,93894.16
2022-09-13T12:18:26.438Z,93896.66
2022-09-13T12:21:00.985Z,93893.59
2022-09-13T12:23:36.098Z,93888.38
2022-09-13T12:26:13.345Z,93882.09
2022-09-13T12:28:49.557Z,93876.38
2022-09-13T12:31:24.292Z,93873.53
2022-09-13T12:33:51.225Z,93873.91
2022-09-13T12:36:38.716Z,93880.88
2022-09-13T12:39:24.067Z,93880.06
2022-09-13T12:42:09.576Z,93871.66
2022-09-13T12:44:57.899Z,93879.72
2022-09-13T12:47:55.971Z,93869.59
2022-09-13T12:50:46.144Z,93863.97
2022-09-13T12:53:50.884Z,93864.41
2022-09-13T12:56:27.834Z,93854.47
2022-09-13T12:59:10.010Z,93868.00
2022-09-13T13:01:36.931Z,93864.59
2022-09-13T13:04:22.305Z,93883.44
2022-09-13T13:06:57.198Z,93876.78
2022-09-13T13:09:44.399Z,93883.69
2022-09-13T13:12:29.195Z,93877.22
2022-09-13T13:14:57.093Z,93874.53
2022-09-13T13:17:48.118Z,93872.69
2022-09-13T13:20:39.621Z,93875.63
2022-09-13T13:23:33.158Z,93873.97
2022-09-13T13:26:23.567Z,93864.53
2022-09-13T13:29:13.140Z,93864.50
2022-09-13T13:31:41.946Z,93855.38
2022-09-13T13:34:14.712Z,93858.22
2022-09-13T13:36:41.313Z,93853.84
2022-09-13T13:39:35.019Z,93847.00
2022-09-13T13:42:10.367Z,93834.47
2022-09-13T13:44:58.050Z,93836.63
2022-09-13T13:47:30.551Z,93824.41
2022-09-13T13:50:00.214Z,93821.13
2022-09-13T13:52:26.855Z,93806.19
2022-09-13T13:55:31.544Z,93802.78
2022-09-13T13:58:05.919Z,93796.41
2022-09-13T14:00:35.181Z,93789.91
2022-09-13T14:03:01.796Z,93804.69
2022-09-13T14:05:46.756Z,93806.75
2022-09-13T14:08:28.690Z,93800.81
2022-09-13T14:11:15.168Z,93796.44
2022-09-13T14:13:47.895Z,93794.22
2022-09-13T14:16:17.862Z,93788.34
2022-09-13T14:18:52.675Z,93786.69
2022-09-13T14:21:30.311Z,93784.28
2022-09-13T14:24:08.255Z,93787.25
2022-09-13T14:26:35.349Z,93778.75
2022-09-13T14:29:06.776Z,93778.16
2022-09-13T14:31:33.576Z,93764.19
2022-09-13T14:34:00.383Z,93760.75
2022-09-13T14:36:27.874Z,93764.84
2022-09-13T14:39:00.575Z,93764.63
2022-09-13T14:41:33.838Z,93769.13
2022-09-13T14:44:28.133Z,93773.91
2022-09-13T14:47:04.594Z,93768.78
2022-09-13T14:49:38.933Z,93770.19
2022-09-13T14:52:15.452Z,93769.81
2022-09-13T14:54:51.206Z,93774.09
2022-09-13T14:57:30.387Z,93773.22
2022-09-13T15:00:02.093Z,93751.31
2022-09-13T15:02:37.612Z,93773.38
2022-09-13T15:05:11.767Z,93767.22
2022-09-13T15:07:40.114Z,93765.66
2022-09-13T15:10:12.551Z,93769.53
2022-09-13T15:13:08.004Z,93759.06
2022-09-13T15:15:39.417Z,93769.00
2022-09-13T15:18:09.075Z,93770.84
2022-09-13T15:20:45.222Z,93767.22
2022-09-13T15:23:16.309Z,93761.03
2022-09-13T15:25:53.292Z,93768.59
2022-09-13T15:28:23.243Z,93739.09
2022-09-13T15:30:51.699Z,93751.78
2022-09-13T15:33:24.987Z,93760.34
2022-09-13T15:35:53.710Z,93754.34
2022-09-13T15:38:31.792Z,93751.09
2022-09-13T15:41:18.216Z,93745.53
2022-09-13T15:43:47.868Z,93752.34
2022-09-13T15:46:16.842Z,93746.66
2022-09-13T15:48:52.039Z,93734.41
2022-09-13T15:51:19.114Z,93732.44
2022-09-13T15:53:46.986Z,93734.00
2022-09-13T15:56:18.025Z,93708.16
2022-09-13T15:58:44.665Z,93709.84
2022-09-13T16:01:13.402Z,93704.88
2022-09-13T16:03:40.651Z,93703.50
2022-09-13T16:06:09.370Z,93717.78
2022-09-13T16:08:36.871Z,93708.72
2022-09-13T16:11:03.705Z,93695.81
2022-09-13T16:13:30.314Z,93694.75
2022-09-13T16:15:58.056Z,93702.97
2022-09-13T16:18:25.482Z,93704.25
2022-09-13T16:20:52.142Z,93692.84
2022-09-13T16:23:18.765Z,93707.25
2022-09-13T16:25:45.598Z,93699.44
2022-09-13T16:28:21.175Z,93695.94
2022-09-13T16:30:48.609Z,93691.38
2022-09-13T16:33:15.303Z,93674.78
2022-09-13T16:35:41.993Z,93693.50
2022-09-13T16:38:10.443Z,93697.78
2022-09-13T16:40:41.665Z,93698.19
2022-09-13T16:43:09.120Z,93682.38
2022-09-13T16:45:40.369Z,93679.00
2022-09-13T16:48:08.494Z,93691.06
2022-09-13T16:50:36.113Z,93681.78
2022-09-13T16:53:02.862Z,93680.00
2022-09-13T16:55:30.243Z,93663.38
2022-09-13T16:57:56.921Z,93652.25
2022-09-13T17:00:28.614Z,93669.69
2022-09-13T17:02:56.001Z,93661.22
2022-09-13T17:05:24.482Z,93658.63
2022-09-13T17:07:52.055Z,93647.63
2022-09-13T17:10:18.961Z,93640.34
2022-09-13T17:12:45.596Z,93665.59
2022-09-13T17:15:12.221Z,93656.03
2022-09-13T17:17:38.882Z,93654.19
2022-09-13T17:20:10.177Z,93672.78
2022-09-13T17:22:37.459Z,93668.22
2022-09-13T17:25:07.674Z,93660.44
2022-09-13T17:27:34.431Z,93656.78
2022-09-13T17:30:02.411Z,93648.75
2022-09-13T17:32:29.117Z,93660.97
2022-09-13T17:34:55.785Z,93652.09
2022-09-13T17:37:22.445Z,93670.47
2022-09-13T17:39:49.357Z,93676.22
2022-09-13T17:42:19.032Z,93675.16
2022-09-13T17:44:48.079Z,93678.25
2022-09-13T17:47:14.723Z,93668.63
2022-09-13T17:49:41.619Z,93669.59
2022-09-13T17:52:08.303Z,93680.88
2022-09-13T17:54:35.018Z,93676.34
2022-09-13T17:57:01.663Z,93672.19
2022-09-13T17:59:28.448Z,93675.09
2022-09-13T18:01:57.992Z,93672.88
2022-09-13T18:04:24.791Z,93662.78
2022-09-13T18:06:52.722Z,93666.59
2022-09-13T18:09:19.940Z,93670.13
2022-09-13T18:11:46.935Z,93674.41
2022-09-13T18:14:15.495Z,93664.34
2022-09-13T18:16:43.220Z,93676.53
2022-09-13T18:19:10.029Z,93669.09
2022-09-13T18:21:36.710Z,93666.75
2022-09-13T18:24:04.164Z,93681.69
2022-09-13T18:26:32.621Z,93676.81
2022-09-13T18:29:05.761Z,93686.06
2022-09-13T18:31:34.405Z,93674.25
2022-09-13T18:34:05.500Z,93678.88
2022-09-13T18:36:36.215Z,93664.19
2022-09-13T18:39:04.957Z,93658.78
2022-09-13T18:41:34.676Z,93669.19
2022-09-13T18:44:02.027Z,93669.25
2022-09-13T18:46:31.727Z,93685.91
2022-09-13T18:48:58.945Z,93667.00
2022-09-13T18:51:28.759Z,93693.31
2022-09-13T18:53:56.067Z,93687.06
2022-09-13T18:56:24.303Z,93674.63
2022-09-13T18:58:55.221Z,93687.06
2022-09-13T19:01:28.726Z,93683.94
2022-09-13T19:03:57.959Z,93672.69
2022-09-13T19:06:26.196Z,93685.16
2022-09-13T19:08:55.477Z,93676.63
2022-09-13T19:11:45.160Z,93672.31
2022-09-13T19:14:14.870Z,93672.31
2022-09-13T19:16:41.972Z,93658.72
2022-09-13T19:19:11.757Z,93678.03
2022-09-13T19:21:38.506Z,93673.44
2022-09-13T19:24:10.148Z,93674.22
2022-09-13T19:26:40.519Z,93695.09
2022-09-13T19:29:11.329Z,93701.09
2022-09-13T19:34:26.090Z,93691.75
2022-09-13T19:36:57.920Z,93682.97
2022-09-13T19:39:29.247Z,93688.13
2022-09-13T19:41:57.049Z,93690.19
2022-09-13T19:44:23.771Z,93691.81
2022-09-13T19:47:06.913Z,93700.72
2022-09-13T19:49:38.222Z,93706.56
2022-09-13T19:52:05.814Z,93702.72
2022-09-13T19:54:33.232Z,93706.94
2022-09-13T19:57:01.285Z,93697.63
2022-09-13T19:59:28.850Z,93698.06
2022-09-13T20:01:58.859Z,93699.59
2022-09-13T20:04:26.251Z,93696.09
2022-09-13T20:06:53.514Z,93693.75
2022-09-13T20:09:21.426Z,93692.59
2022-09-13T20:11:49.023Z,93689.47
2022-09-13T20:14:18.738Z,93677.88
2022-09-13T20:16:46.794Z,93691.44
2022-09-13T20:22:07.503Z,93694.97
2022-09-13T20:24:34.166Z,93683.31
2022-09-13T20:27:01.264Z,93684.13
2022-09-13T20:29:28.240Z,93696.91
2022-09-13T20:31:55.577Z,93699.63
2022-09-13T20:34:22.371Z,93688.78
2022-09-13T20:36:49.083Z,93695.00
2022-09-13T20:39:16.047Z,93699.66
2022-09-13T20:41:44.438Z,93696.56
2022-09-13T20:44:12.379Z,93689.59
2022-09-13T20:46:40.743Z,93686.13
2022-09-13T20:49:09.175Z,93675.66
2022-09-13T20:51:37.482Z,93673.72
2022-09-13T20:54:05.416Z,93664.41
2022-09-13T20:56:33.951Z,93684.94
2022-09-13T20:59:01.805Z,93677.19
2022-09-13T21:01:34.093Z,93669.06
2022-09-13T21:04:01.575Z,93693.84
2022-09-13T21:06:30.336Z,93686.88
2022-09-13T21:09:00.296Z,93683.78
2022-09-13T21:11:32.796Z,93683.03
2022-09-13T21:14:04.920Z,93693.50
2022-09-13T21:16:34.617Z,93697.78
2022-09-13T21:19:02.088Z,93692.34
2022-09-13T21:21:34.926Z,93685.75
2022-09-13T21:24:05.927Z,93672.19
2022-09-13T21:26:33.337Z,93684.97
2022-09-13T21:29:00.753Z,93686.13
2022-09-13T21:31:30.378Z,93684.59
2022-09-13T21:34:02.667Z,93688.44
2022-09-13T21:36:30.601Z,93676.41
2022-09-13T21:38:58.011Z,93641.44
2022-09-13T21:41:26.355Z,93665.47
2022-09-13T21:43:53.841Z,93663.50
2022-09-13T21:46:32.077Z,93645.97
2022-09-13T21:49:00.890Z,93634.69
2022-09-13T21:51:30.914Z,93639.28
2022-09-13T21:53:59.560Z,93632.25
2022-09-13T21:56:28.265Z,93643.50
2022-09-13T21:59:00.977Z,93639.59
2022-09-13T22:01:32.844Z,93643.47
2022-09-13T22:03:59.650Z,93646.19
2022-09-13T22:06:30.292Z,93636.50
2022-09-13T22:09:01.852Z,93647.34
2022-09-13T22:11:31.270Z,93648.91
2022-09-13T22:13:59.708Z,93637.31
2022-09-13T22:16:31.441Z,93655.53
2022-09-13T22:19:04.343Z,93640.41
2022-09-13T22:21:36.570Z,93652.03
2022-09-13T22:24:04.917Z,93651.25
2022-09-13T22:26:34.582Z,93656.66
2022-09-13T22:29:01.571Z,93652.00
2022-09-13T22:31:32.145Z,93648.09
2022-09-13T22:34:00.627Z,93641.47
2022-09-13T22:36:28.362Z,93640.34
2022-09-13T22:38:55.615Z,93629.13
2022-09-13T22:41:29.001Z,93628.47
2022-09-13T22:43:56.318Z,93620.44
2022-09-13T22:46:27.713Z,93623.53
2022-09-13T22:48:55.466Z,93606.09
2022-09-13T22:51:23.379Z,93616.56
2022-09-13T22:53:51.759Z,93623.94
2022-09-13T22:56:46.245Z,93617.72
2022-09-13T22:59:15.410Z,93622.75
2022-09-13T23:01:42.986Z,93622.34
2022-09-13T23:04:10.641Z,93624.69
2022-09-13T23:06:37.935Z,93618.88
2022-09-13T23:09:07.304Z,93620.38
2022-09-13T23:11:36.954Z,93599.09
2022-09-13T23:14:10.112Z,93604.88
2022-09-13T23:16:45.640Z,93602.59
2022-09-13T23:19:13.676Z,93608.06
2022-09-13T23:21:41.527Z,93603.41
2022-09-13T23:24:12.506Z,93597.25
2022-09-13T23:26:40.187Z,93608.50
2022-09-13T23:29:07.590Z,93598.81
2022-09-13T23:31:36.665Z,93586.81
2022-09-13T23:34:06.626Z,93585.72
2022-09-13T23:36:37.397Z,93591.91
2022-09-13T23:39:08.170Z,93588.03
2022-09-13T23:41:35.745Z,93591.94
2022-09-13T23:44:03.866Z,93585.72
2022-09-13T23:46:31.397Z,93583.75
2022-09-13T23:48:58.130Z,93578.28
2022-09-13T23:51:26.494Z,93579.06
2022-09-13T23:53:57.232Z,93581.00
2022-09-13T23:56:26.011Z,93575.94
2022-09-13T23:58:53.049Z,93567.03
